Terminal Aerodrome Forecast
Issued by NWS

Home | Current Version | Previous Version | Text Only | Print | Product List | Glossary Off
Versions: 1 2 3 4 5 6 7 8 9 10 11 12 13 14

717
FTUS43 KMPX 031139
TAFRWF
TAF
KRWF 031139Z 0312/0412 35022G26KT 6SM -SN BLSN OVC035
     FM031800 32016G20KT 6SM BLSN SCT040 BKN250
     FM032200 29008KT P6SM BKN250
     FM040300 24007KT P6SM OVC120
     FM040800 22006KT P6SM OVC050=

USA.gov is the U.S. government's official web portal to all federal, state and local government web resources and services.